Warning: Javascript must be enabled to use all the features on this page!


Page Loading - Please Wait...

Click to hideNews Bulletins
Click to hide state-specific text

Welcome to the NWIS-Web for the Arizona Water Science Center


The majority of USGS Gaging Stations are funded though a cooperative program between the USGS other interested agencies.
Follow this link for information on the Cooperative Water Program with the USGS.

Arizona Water Science Center Home Page
Colorado Basin River Forecast Center (CBRFC) - provided by the National Weather Service, AHPS. CBRFC on a esri powered interactive map.
Threatened and Endangered USGS Gaging Stations in Arizona

USGS 09471000 SAN PEDRO RIVER AT CHARLESTON, AZ.

PROVISIONAL DATA SUBJECT TO REVISION

Click to hidestation-specific text
Station operated in cooperation with Cochise County, the Bureau of Land Management, and the Arizona Department of Water Resources.

HIGH DATA RATE (Site data are transmitted & updated hourly)
rainfall Arrow
This station managed by the Tucson Field Office; USGS AZ-WSC.

Available Parameters Available Period
All 4 Available Parameters for this site
  
00010 Temperature, water 2012-02-09  2017-07-24
00045 Precipitation 2017-03-26  2017-07-24
00060 Discharge 1988-10-01  2017-07-24
00065 Gage height [Radar Stage Sensor] 2017-03-26  2017-07-24

Graph
Graph w/ stats
Graph w/o stats
Graph w/ (up to 3) parms
Table
Tab-separated
Days  (7)
 

  -- or --
Begin date
 

End date
 

Summary of all available data for this site
Instantaneous-data availability statement






Date / Time




Gage
height,
feet,
[Radar
Stage
Sensor]




Dis-
charge,
ft3/s,



Precip-
itation
total,
inches,
07/17/2017 00:00 MST2.10P  13.1P  0.00P  
07/17/2017 00:15 MST2.08P  12.1P  0.00P  
07/17/2017 00:30 MST2.08P  12.1P  0.00P  
07/17/2017 00:45 MST2.07P  11.6P  0.00P  
07/17/2017 01:00 MST2.06P  11.1P  0.00P  
07/17/2017 01:15 MST2.05P  10.6P  0.00P  
07/17/2017 01:30 MST2.04P  10.2P  0.00P  
07/17/2017 01:45 MST2.03P  9.74P  0.00P  
07/17/2017 02:00 MST2.03P  9.74P  0.00P  
07/17/2017 02:15 MST2.02P  9.32P  0.00P  
07/17/2017 02:30 MST2.02P  9.32P  0.00P  
07/17/2017 02:45 MST2.01P  8.91P  0.00P  
07/17/2017 03:00 MST2.00P  8.51P  0.00P  
07/17/2017 03:15 MST2.00P  8.51P  0.00P  
07/17/2017 03:30 MST2.00P  8.51P  0.00P  
07/17/2017 03:45 MST1.99P  8.12P  0.00P  
07/17/2017 04:00 MST1.99P  8.12P  0.00P  
07/17/2017 04:15 MST1.98P  7.75P  0.00P  
07/17/2017 04:30 MST1.98P  7.75P  0.00P  
07/17/2017 04:45 MST1.98P  7.75P  0.00P  
07/17/2017 05:00 MST1.97P  7.39P  0.00P  
07/17/2017 05:15 MST1.97P  7.39P  0.00P  
07/17/2017 05:30 MST1.96P  7.04P  0.00P  
07/17/2017 05:45 MST1.96P  7.04P  0.00P  
07/17/2017 06:00 MST1.96P  7.04P  0.00P  
07/17/2017 06:15 MST1.96P  7.04P  0.00P  
07/17/2017 06:30 MST1.95P  6.71P  0.00P  
07/17/2017 06:45 MST1.95P  6.71P  0.00P  
07/17/2017 07:00 MST1.95P  6.71P  0.00P  
07/17/2017 07:15 MST2.78P  78.7P  0.00P  
07/17/2017 07:29 MST3.99P  377P     
07/17/2017 07:30 MST3.99P  377P  0.00P  
07/17/2017 07:44 MST4.34P  528P     
07/17/2017 07:45 MST4.34P  528P  0.00P  
07/17/2017 07:59 MST4.41P  563P     
07/17/2017 08:00 MST4.41P  563P  0.00P  
07/17/2017 08:14 MST4.54P  630P     
07/17/2017 08:15 MST4.54P  630P  0.00P  
07/17/2017 08:29 MST4.48P  598P     
07/17/2017 08:30 MST4.48P  598P  0.00P  
07/17/2017 08:44 MST4.41P  563P     
07/17/2017 08:45 MST4.41P  563P  0.00P  
07/17/2017 08:59 MST4.60P  663P     
07/17/2017 09:00 MST4.60P  663P  0.00P  
07/17/2017 09:14 MST4.52P  620P     
07/17/2017 09:15 MST4.52P  620P  0.00P  
07/17/2017 09:29 MST4.69P  714P     
07/17/2017 09:30 MST4.69P  714P  0.00P  
07/17/2017 09:44 MST4.69P  714P     
07/17/2017 09:45 MST4.53P  625P  0.00P  
07/17/2017 09:59 MST4.53P  625P     
07/17/2017 10:00 MST4.53P  625P  0.00P  
07/17/2017 10:14 MST4.51P  614P     
07/17/2017 10:15 MST4.51P  614P  0.00P  
07/17/2017 10:29 MST4.25P  486P     
07/17/2017 10:30 MST4.25P  486P  0.00P  
07/17/2017 10:44 MST4.17P  450P     
07/17/2017 10:45 MST4.17P  450P  0.00P  
07/17/2017 11:00 MST4.14P  438P  0.00P  
07/17/2017 11:15 MST4.00P  380P  0.00P  
07/17/2017 11:30 MST3.91P  348P  0.00P  
07/17/2017 11:45 MST3.83P  320P  0.00P  
07/17/2017 12:00 MST3.70P  278P  0.00P  
07/17/2017 12:15 MST3.62P  255P  0.00P  
07/17/2017 12:30 MST3.56P  238P  0.00P  
07/17/2017 12:45 MST3.52P  227P  0.00P  
07/17/2017 13:00 MST3.42P  201P  0.00P  
07/17/2017 13:15 MST3.36P  186P  0.00P  
07/17/2017 13:30 MST3.32P  177P  0.00P  
07/17/2017 13:45 MST3.26P  163P  0.00P  
07/17/2017 14:00 MST3.20P  151P  0.00P  
07/17/2017 14:15 MST3.18P  146P  0.00P  
07/17/2017 14:30 MST3.15P  140P  0.00P  
07/17/2017 14:45 MST3.10P  131P  0.00P  
07/17/2017 15:00 MST3.06P  123P  0.00P  
07/17/2017 15:15 MST3.02P  116P  0.00P  
07/17/2017 15:30 MST2.99P  111P  0.00P  
07/17/2017 15:45 MST2.98P  109P  0.00P  
07/17/2017 16:00 MST2.94P  103P  0.00P  
07/17/2017 16:15 MST2.91P  97.8P  0.00P  
07/17/2017 16:30 MST2.89P  94.7P  0.00P  
07/17/2017 16:45 MST2.88P  93.2P  0.00P  
07/17/2017 17:00 MST2.92P  99.4P  0.00P  
07/17/2017 17:15 MST3.06P  123P  0.00P  
07/17/2017 17:30 MST3.21P  153P  0.00P  
07/17/2017 17:45 MST3.24P  159P  0.00P  
07/17/2017 18:00 MST3.18P  146P  0.00P  
07/17/2017 18:15 MST3.11P  133P  0.00P  
07/17/2017 18:30 MST3.02P  116P  0.00P  
07/17/2017 18:45 MST2.94P  103P  0.00P  
07/17/2017 19:00 MST2.88P  93.2P  0.00P  
07/17/2017 19:15 MST2.83P  85.8P  0.00P  
07/17/2017 19:30 MST2.78P  78.7P  0.00P  
07/17/2017 19:45 MST2.74P  73.3P  0.00P  
07/17/2017 20:00 MST2.71P  69.3P  0.00P  
07/17/2017 20:15 MST2.69P  66.7P  0.00P  
07/17/2017 20:30 MST2.65P  61.7P  0.00P  
07/17/2017 20:45 MST2.63P  59.3P  0.00P  
07/17/2017 21:00 MST2.61P  56.9P  0.00P  
07/17/2017 21:15 MST2.59P  54.7P  0.00P  
07/17/2017 21:30 MST2.57P  52.4P  0.00P  
07/17/2017 21:45 MST2.55P  50.3P  0.00P  
07/17/2017 22:00 MST2.53P  48.2P  0.00P  
07/17/2017 22:15 MST2.51P  46.1P  0.00P  
07/17/2017 22:30 MST2.50P  45.1P  0.00P  
07/17/2017 22:45 MST2.48P  43.1P  0.00P  
07/17/2017 23:00 MST2.47P  42.2P  0.00P  
07/17/2017 23:15 MST2.46P  41.2P  0.00P  
07/17/2017 23:30 MST2.45P  40.3P  0.00P  
07/17/2017 23:45 MST2.43P  38.4P  0.00P  
07/18/2017 00:00 MST2.42P  37.4P  0.00P  
07/18/2017 00:15 MST2.41P  36.5P  0.00P  
07/18/2017 00:30 MST2.40P  35.6P  0.00P  
07/18/2017 00:45 MST2.40P  35.6P  0.00P  
07/18/2017 01:00 MST2.39P  34.7P  0.00P  
07/18/2017 01:15 MST2.38P  33.9P  0.00P  
07/18/2017 01:30 MST2.37P  33.0P  0.00P  
07/18/2017 01:45 MST2.36P  32.2P  0.00P  
07/18/2017 02:00 MST2.35P  31.4P  0.00P  
07/18/2017 02:15 MST2.34P  30.5P  0.00P  
07/18/2017 02:30 MST2.33P  29.7P  0.00P  
07/18/2017 02:45 MST2.33P  29.7P  0.00P  
07/18/2017 03:00 MST2.32P  28.8P  0.00P  
07/18/2017 03:15 MST2.31P  27.9P  0.00P  
07/18/2017 03:30 MST2.31P  27.9P  0.00P  
07/18/2017 03:45 MST2.30P  27.1P  0.00P  
07/18/2017 04:00 MST2.29P  26.3P  0.00P  
07/18/2017 04:15 MST2.29P  26.3P  0.00P  
07/18/2017 04:30 MST2.28P  25.4P  0.00P  
07/18/2017 04:45 MST2.28P  25.4P  0.00P  
07/18/2017 05:00 MST2.27P  24.6P  0.00P  
07/18/2017 05:15 MST2.26P  23.8P  0.00P  
07/18/2017 05:30 MST2.26P  23.8P  0.00P  
07/18/2017 05:45 MST2.25P  23.0P  0.00P  
07/18/2017 06:00 MST2.25P  23.0P  0.00P  
07/18/2017 06:15 MST2.24P  22.2P  0.00P  
07/18/2017 06:30 MST2.24P  22.2P  0.00P  
07/18/2017 06:45 MST3.57P  240P  0.00P  
07/18/2017 06:59 MST4.22P  473P     
07/18/2017 07:00 MST4.22P  473P  0.00P  
07/18/2017 07:14 MST4.45P  583P     
07/18/2017 07:15 MST4.45P  583P  0.00P  
07/18/2017 07:29 MST4.55P  636P     
07/18/2017 07:30 MST4.55P  636P  0.00P  
07/18/2017 07:44 MST4.64P  686P     
07/18/2017 07:45 MST4.64P  686P  0.00P  
07/18/2017 07:59 MST4.65P  691P     
07/18/2017 08:00 MST4.65P  691P  0.00P  
07/18/2017 08:14 MST4.67P  703P     
07/18/2017 08:15 MST4.67P  703P  0.00P  
07/18/2017 08:29 MST4.69P  714P     
07/18/2017 08:30 MST4.69P  714P  0.00P  
07/18/2017 08:44 MST4.59P  658P     
07/18/2017 08:45 MST4.59P  658P  0.00P  
07/18/2017 08:59 MST4.66P  697P     
07/18/2017 09:00 MST4.66P  697P  0.00P  
07/18/2017 09:14 MST4.63P  680P     
07/18/2017 09:15 MST4.63P  680P  0.00P  
07/18/2017 09:29 MST4.58P  652P     
07/18/2017 09:30 MST4.58P  652P  0.00P  
07/18/2017 09:44 MST4.43P  573P     
07/18/2017 09:45 MST4.43P  573P  0.00P  
07/18/2017 09:59 MST4.34P  528P     
07/18/2017 10:00 MST4.34P  528P  0.00P  
07/18/2017 10:14 MST4.21P  468P     
07/18/2017 10:15 MST4.21P  468P  0.00P  
07/18/2017 10:30 MST4.16P  446P  0.00P  
07/18/2017 10:45 MST4.04P  396P  0.00P  
07/18/2017 11:00 MST3.92P  351P  0.00P  
07/18/2017 11:15 MST3.86P  330P  0.00P  
07/18/2017 11:30 MST3.78P  304P  0.00P  
07/18/2017 11:45 MST3.68P  272P  0.00P  
07/18/2017 12:00 MST3.61P  252P  0.00P  
07/18/2017 12:15 MST3.57P  240P  0.00P  
07/18/2017 12:30 MST3.52P  227P  0.00P  
07/18/2017 12:45 MST3.46P  211P  0.00P  
07/18/2017 13:00 MST3.41P  198P  0.00P  
07/18/2017 13:15 MST3.34P  181P  0.00P  
07/18/2017 13:30 MST3.33P  179P  0.00P  
07/18/2017 13:45 MST3.27P  166P  0.00P  
07/18/2017 14:00 MST3.23P  157P  0.00P  
07/18/2017 14:15 MST3.19P  148P  0.00P  
07/18/2017 14:30 MST3.16P  142P  0.00P  
07/18/2017 14:45 MST3.12P  135P  0.00P  
07/18/2017 15:00 MST3.09P  129P  0.00P  
07/18/2017 15:15 MST3.04P  120P  0.00P  
07/18/2017 15:30 MST3.03P  118P  0.00P  
07/18/2017 15:45 MST2.99P  111P  0.00P  
07/18/2017 16:00 MST2.98P  109P  0.00P  
07/18/2017 16:15 MST2.95P  104P  0.00P  
07/18/2017 16:30 MST2.94P  103P  0.00P  
07/18/2017 16:45 MST2.92P  99.4P  0.00P  
07/18/2017 17:00 MST2.88P  93.2P  0.00P  
07/18/2017 17:15 MST2.87P  91.7P  0.00P  
07/18/2017 17:30 MST2.87P  91.7P  0.00P  
07/18/2017 17:45 MST2.86P  90.2P  0.00P  
07/18/2017 18:00 MST2.83P  85.8P  0.00P  
07/18/2017 18:15 MST2.82P  84.3P  0.00P  
07/18/2017 18:30 MST2.81P  82.9P  0.00P  
07/18/2017 18:45 MST2.80P  81.5P  0.00P  
07/18/2017 19:00 MST2.82P  84.3P  0.00P  
07/18/2017 19:15 MST2.83P  85.8P  0.00P  
07/18/2017 19:30 MST2.97P  108P  0.00P  
07/18/2017 19:45 MST3.27P  166P  0.00P  
07/18/2017 20:00 MST3.42P  201P  0.00P  
07/18/2017 20:15 MST3.51P  224P  0.00P  
07/18/2017 20:30 MST3.47P  213P  0.00P  
07/18/2017 20:45 MST3.36P  186P  0.00P  
07/18/2017 21:00 MST3.25P  161P  0.00P  
07/18/2017 21:15 MST3.14P  138P  0.00P  
07/18/2017 21:30 MST3.05P  121P  0.00P  
07/18/2017 21:45 MST2.97P  108P  0.00P  
07/18/2017 22:00 MST2.89P  94.7P  0.00P  
07/18/2017 22:15 MST2.84P  87.2P  0.00P  
07/18/2017 22:30 MST2.79P  80.1P  0.00P  
07/18/2017 22:45 MST2.74P  73.3P  0.00P  
07/18/2017 23:00 MST2.70P  68.0P  0.00P  
07/18/2017 23:15 MST2.67P  64.2P  0.00P  
07/18/2017 23:30 MST2.64P  60.5P  0.00P  
07/18/2017 23:45 MST2.62P  58.1P  0.00P  
07/19/2017 00:00 MST2.59P  54.7P  0.00P  
07/19/2017 00:15 MST2.57P  52.4P  0.00P  
07/19/2017 00:30 MST2.56P  51.3P  0.00P  
07/19/2017 00:45 MST2.54P  49.2P  0.00P  
07/19/2017 01:00 MST2.52P  47.1P  0.00P  
07/19/2017 01:15 MST2.50P  45.1P  0.00P  
07/19/2017 01:30 MST2.49P  44.1P  0.00P  
07/19/2017 01:45 MST2.48P  43.1P  0.00P  
07/19/2017 02:00 MST2.47P  42.2P  0.00P  
07/19/2017 02:15 MST2.46P  41.2P  0.00P  
07/19/2017 02:30 MST2.45P  40.3P  0.00P  
07/19/2017 02:45 MST2.44P  39.3P  0.00P  
07/19/2017 03:00 MST2.43P  38.4P  0.00P  
07/19/2017 03:15 MST2.42P  37.4P  0.00P  
07/19/2017 03:30 MST2.41P  36.5P  0.00P  
07/19/2017 03:45 MST2.40P  35.6P  0.00P  
07/19/2017 04:00 MST2.39P  34.7P  0.00P  
07/19/2017 04:15 MST2.39P  34.7P  0.00P  
07/19/2017 04:30 MST2.38P  33.9P  0.00P  
07/19/2017 04:45 MST2.38P  33.9P  0.00P  
07/19/2017 05:00 MST2.37P  33.0P  0.00P  
07/19/2017 05:15 MST2.36P  32.2P  0.00P  
07/19/2017 05:30 MST2.35P  31.4P  0.00P  
07/19/2017 05:45 MST2.35P  31.4P  0.00P  
07/19/2017 06:00 MST2.34P  30.5P  0.00P  
07/19/2017 06:15 MST2.34P  30.5P  0.00P  
07/19/2017 06:30 MST2.33P  29.7P  0.00P  
07/19/2017 06:45 MST2.33P  29.7P  0.00P  
07/19/2017 07:00 MST2.32P  28.8P  0.00P  
07/19/2017 07:15 MST2.32P  28.8P  0.00P  
07/19/2017 07:30 MST2.31P  27.9P  0.00P  
07/19/2017 07:45 MST2.31P  27.9P  0.00P  
07/19/2017 08:00 MST2.30P  27.1P  0.00P  
07/19/2017 08:15 MST2.29P  26.3P  0.00P  
07/19/2017 08:30 MST2.29P  26.3P  0.00P  
07/19/2017 08:45 MST2.29P  26.3P  0.00P  
07/19/2017 09:00 MST3.24P  159P  0.00P  
07/19/2017 09:14 MST4.03P  392P     
07/19/2017 09:15 MST4.03P  392P  0.00P  
07/19/2017 09:29 MST4.26P  491P     
07/19/2017 09:30 MST4.26P  491P  0.00P  
07/19/2017 09:44 MST4.26P  491P     
07/19/2017 09:45 MST4.40P  558P  0.00P  
07/19/2017 09:59 MST4.40P  558P     
07/19/2017 10:00 MST4.45P  583P  0.00P  
07/19/2017 10:14 MST4.60P  663P     
07/19/2017 10:15 MST4.60P  663P  0.00P  
07/19/2017 10:29 MST4.65P  691P     
07/19/2017 10:30 MST4.65P  691P  0.00P  
07/19/2017 10:44 MST4.62P  674P     
07/19/2017 10:45 MST4.62P  674P  0.00P  
07/19/2017 10:59 MST4.58P  652P     
07/19/2017 11:00 MST4.58P  652P  0.00P  
07/19/2017 11:14 MST4.70P  720P     
07/19/2017 11:15 MST4.70P  720P  0.00P  
07/19/2017 11:29 MST4.78P  768P     
07/19/2017 11:30 MST4.78P  768P  0.00P  
07/19/2017 11:44 MST4.78P  768P     
07/19/2017 11:45 MST4.78P  768P  0.00P  
07/19/2017 11:59 MST4.80P  781P     
07/19/2017 12:00 MST4.80P  781P  0.00P  
07/19/2017 12:14 MST4.81P  787P     
07/19/2017 12:15 MST4.81P  787P  0.00P  
07/19/2017 12:29 MST4.88P  831P     
07/19/2017 12:30 MST4.88P  831P  0.00P  
07/19/2017 12:44 MST4.83P  799P     
07/19/2017 12:45 MST4.83P  799P  0.00P  
07/19/2017 12:59 MST4.89P  837P     
07/19/2017 13:00 MST4.89P  837P  0.00P  
07/19/2017 13:14 MST4.86P  818P     
07/19/2017 13:15 MST4.86P  818P  0.00P  
07/19/2017 13:29 MST4.84P  806P     
07/19/2017 13:30 MST4.84P  806P  0.00P  
07/19/2017 13:44 MST4.85P  812P     
07/19/2017 13:45 MST4.85P  812P  0.00P  
07/19/2017 13:59 MST4.83P  799P     
07/19/2017 14:00 MST4.83P  799P  0.00P  
07/19/2017 14:14 MST4.82P  793P     
07/19/2017 14:15 MST4.82P  793P  0.00P  
07/19/2017 14:29 MST4.82P  793P     
07/19/2017 14:30 MST4.82P  793P  0.00P  
07/19/2017 14:44 MST4.77P  762P     
07/19/2017 14:45 MST4.77P  762P  0.00P  
07/19/2017 14:59 MST4.71P  726P     
07/19/2017 15:00 MST4.71P  726P  0.00P  
07/19/2017 15:14 MST4.62P  674P     
07/19/2017 15:15 MST4.62P  674P  0.00P  
07/19/2017 15:29 MST4.53P  625P     
07/19/2017 15:30 MST4.53P  625P  0.00P  
07/19/2017 15:44 MST4.49P  604P     
07/19/2017 15:45 MST4.49P  604P  0.00P  
07/19/2017 15:59 MST4.40P  558P     
07/19/2017 16:00 MST4.40P  558P  0.00P  
07/19/2017 16:14 MST4.34P  528P     
07/19/2017 16:15 MST4.34P  528P  0.00P  
07/19/2017 16:29 MST4.31P  514P     
07/19/2017 16:30 MST4.31P  514P  0.00P  
07/19/2017 16:44 MST4.26P  491P     
07/19/2017 16:45 MST4.26P  491P  0.00P  
07/19/2017 17:00 MST4.22P  473P  0.00P  
07/19/2017 17:15 MST4.22P  473P  0.00P  
07/19/2017 17:30 MST4.26P  491P  0.00P  
07/19/2017 17:45 MST4.30P  509P  0.00P  
07/19/2017 18:00 MST4.32P  519P  0.00P  
07/19/2017 18:15 MST4.29P  505P  0.00P  
07/19/2017 18:30 MST4.24P  482P  0.00P  
07/19/2017 18:45 MST4.12P  429P  0.00P  
07/19/2017 19:00 MST3.97P  369P  0.00P  
07/19/2017 19:15 MST3.85P  327P  0.00P  
07/19/2017 19:30 MST3.74P  291P  0.00P  
07/19/2017 19:45 MST3.63P  257P  0.00P  
07/19/2017 20:00 MST3.56P  238P  0.00P  
07/19/2017 20:15 MST3.49P  219P  0.00P  
07/19/2017 20:30 MST3.42P  201P  0.00P  
07/19/2017 20:45 MST3.38P  191P  0.00P  
07/19/2017 21:00 MST3.33P  179P  0.00P  
07/19/2017 21:15 MST3.28P  168P  0.00P  
07/19/2017 21:30 MST3.24P  159P  0.00P  
07/19/2017 21:45 MST3.21P  153P  0.00P  
07/19/2017 22:00 MST3.19P  148P  0.00P  
07/19/2017 22:15 MST3.14P  138P  0.00P  
07/19/2017 22:30 MST3.12P  135P  0.00P  
07/19/2017 22:45 MST3.10P  131P  0.00P  
07/19/2017 23:00 MST3.06P  123P  0.00P  
07/19/2017 23:15 MST3.05P  121P  0.00P  
07/19/2017 23:30 MST3.02P  116P  0.00P  
07/19/2017 23:45 MST3.01P  114P  0.00P  
07/20/2017 00:00 MST2.99P  111P  0.00P  
07/20/2017 00:15 MST2.96P  106P  0.00P  
07/20/2017 00:30 MST2.95P  104P  0.00P  
07/20/2017 00:45 MST2.94P  103P  0.00P  
07/20/2017 01:00 MST2.91P  97.8P  0.00P  
07/20/2017 01:15 MST2.90P  96.3P  0.00P  
07/20/2017 01:30 MST2.88P  93.2P  0.00P  
07/20/2017 01:45 MST2.87P  91.7P  0.00P  
07/20/2017 02:00 MST2.85P  88.7P  0.00P  
07/20/2017 02:15 MST2.84P  87.2P  0.00P  
07/20/2017 02:30 MST2.82P  84.3P  0.00P  
07/20/2017 02:45 MST2.80P  81.5P  0.00P  
07/20/2017 03:00 MST2.79P  80.1P  0.00P  
07/20/2017 03:15 MST2.78P  78.7P  0.00P  
07/20/2017 03:30 MST2.76P  76.0P  0.00P  
07/20/2017 03:45 MST2.75P  74.7P  0.00P  
07/20/2017 04:00 MST2.74P  73.3P  0.00P  
07/20/2017 04:15 MST2.72P  70.6P  0.00P  
07/20/2017 04:30 MST2.71P  69.3P  0.00P  
07/20/2017 04:45 MST2.70P  68.0P  0.00P  
07/20/2017 05:00 MST2.69P  66.7P  0.00P  
07/20/2017 05:15 MST2.68P  65.4P  0.00P  
07/20/2017 05:30 MST2.66P  62.9P  0.00P  
07/20/2017 05:45 MST2.65P  61.7P  0.00P  
07/20/2017 06:00 MST2.64P  60.5P  0.00P  
07/20/2017 06:15 MST2.63P  59.3P  0.00P  
07/20/2017 06:30 MST2.62P  58.1P  0.00P  
07/20/2017 06:45 MST2.61P  56.9P  0.00P  
07/20/2017 07:00 MST2.60P  55.8P  0.00P  
07/20/2017 07:15 MST2.59P  54.7P  0.00P  
07/20/2017 07:30 MST2.58P  53.5P  0.00P  
07/20/2017 07:45 MST2.57P  52.4P  0.00P  
07/20/2017 08:00 MST2.56P  51.3P  0.00P  
07/20/2017 08:15 MST2.56P  51.3P  0.00P  
07/20/2017 08:30 MST2.54P  49.2P  0.00P  
07/20/2017 08:45 MST2.54P  49.2P  0.00P  
07/20/2017 09:00 MST2.53P  48.2P  0.00P  
07/20/2017 09:15 MST2.52P  47.1P  0.00P  
07/20/2017 09:30 MST2.51P  46.1P  0.00P  
07/20/2017 09:45 MST2.50P  45.1P  0.00P  
07/20/2017 10:00 MST2.49P  44.1P  0.00P  
07/20/2017 10:15 MST2.48P  43.1P  0.00P  
07/20/2017 10:30 MST2.49P  44.1P  0.00P  
07/20/2017 10:45 MST3.44P  206P  0.00P  
07/20/2017 11:00 MST4.01P  384P  0.00P  
07/20/2017 11:15 MST4.18P  455P  0.00P  
07/20/2017 11:30 MST4.30P  509P  0.00P  
07/20/2017 11:44 MST4.34P  528P     
07/20/2017 11:45 MST4.34P  528P  0.00P  
07/20/2017 11:59 MST4.35P  533P     
07/20/2017 12:00 MST4.35P  533P  0.00P  
07/20/2017 12:14 MST4.32P  519P     
07/20/2017 12:15 MST4.32P  519P  0.00P  
07/20/2017 12:30 MST4.27P  495P  0.00P  
07/20/2017 12:45 MST4.18P  455P  0.00P  
07/20/2017 13:00 MST4.13P  433P  0.00P  
07/20/2017 13:15 MST4.03P  392P  0.00P  
07/20/2017 13:30 MST3.93P  355P  0.00P  
07/20/2017 13:45 MST3.86P  330P  0.00P  
07/20/2017 14:00 MST3.82P  317P  0.00P  
07/20/2017 14:15 MST3.81P  313P  0.00P  
07/20/2017 14:30 MST3.83P  320P  0.00P  
07/20/2017 14:45 MST3.92P  351P  0.00P  
07/20/2017 15:00 MST4.06P  404P  0.00P  
07/20/2017 15:15 MST4.24P  482P  0.00P  
07/20/2017 15:29 MST4.31P  514P     
07/20/2017 15:30 MST4.31P  514P  0.00P  
07/20/2017 15:44 MST4.42P  568P     
07/20/2017 15:45 MST4.42P  568P  0.00P  
07/20/2017 15:59 MST4.48P  598P     
07/20/2017 16:00 MST4.48P  598P  0.00P  
07/20/2017 16:14 MST4.54P  630P     
07/20/2017 16:15 MST4.54P  630P  0.00P  
07/20/2017 16:29 MST4.63P  680P     
07/20/2017 16:30 MST4.63P  680P  0.00P  
07/20/2017 16:44 MST4.68P  709P     
07/20/2017 16:45 MST4.68P  709P  0.00P  
07/20/2017 16:59 MST4.71P  726P     
07/20/2017 17:00 MST4.71P  726P  0.00P  
07/20/2017 17:14 MST4.74P  744P     
07/20/2017 17:15 MST4.74P  744P  0.00P  
07/20/2017 17:29 MST4.75P  750P     
07/20/2017 17:30 MST4.75P  750P  0.00P  
07/20/2017 17:44 MST4.79P  774P     
07/20/2017 17:45 MST4.79P  774P  0.00P  
07/20/2017 17:59 MST4.80P  781P     
07/20/2017 18:00 MST4.80P  781P  0.00P  
07/20/2017 18:14 MST4.83P  799P     
07/20/2017 18:15 MST4.83P  799P  0.00P  
07/20/2017 18:29 MST4.77P  762P     
07/20/2017 18:30 MST4.77P  762P  0.00P  
07/20/2017 18:44 MST4.79P  774P     
07/20/2017 18:45 MST4.79P  774P  0.00P  
07/20/2017 18:59 MST4.78P  768P     
07/20/2017 19:00 MST4.78P  768P  0.00P  
07/20/2017 19:14 MST4.73P  738P     
07/20/2017 19:15 MST4.73P  738P  0.00P  
07/20/2017 19:29 MST4.67P  703P     
07/20/2017 19:30 MST4.67P  703P  0.00P  
07/20/2017 19:44 MST4.64P  686P     
07/20/2017 19:45 MST4.64P  686P  0.00P  
07/20/2017 19:59 MST4.56P  641P     
07/20/2017 20:00 MST4.56P  641P  0.00P  
07/20/2017 20:14 MST4.49P  604P     
07/20/2017 20:15 MST4.49P  604P  0.00P  
07/20/2017 20:29 MST4.40P  558P     
07/20/2017 20:30 MST4.40P  558P  0.00P  
07/20/2017 20:44 MST4.31P  514P     
07/20/2017 20:45 MST4.31P  514P  0.00P  
07/20/2017 21:00 MST4.25P  486P  0.00P  
07/20/2017 21:15 MST4.17P  450P  0.00P  
07/20/2017 21:30 MST4.11P  425P  0.00P  
07/20/2017 21:45 MST4.03P  392P  0.00P  
07/20/2017 22:00 MST3.95P  362P  0.00P  
07/20/2017 22:15 MST3.92P  351P  0.00P  
07/20/2017 22:30 MST3.85P  327P  0.00P  
07/20/2017 22:45 MST3.80P  310P  0.00P  
07/20/2017 23:00 MST3.76P  297P  0.00P  
07/20/2017 23:15 MST3.72P  285P  0.00P  
07/20/2017 23:30 MST3.69P  275P  0.00P  
07/20/2017 23:45 MST3.66P  266P  0.00P  
07/21/2017 00:00 MST3.64P  260P  0.00P  
07/21/2017 00:15 MST3.58P  243P  0.00P  
07/21/2017 00:30 MST3.56P  238P  0.00P  
07/21/2017 00:45 MST3.56P  238P  0.00P  
07/21/2017 01:00 MST3.51P  224P  0.00P  
07/21/2017 01:15 MST3.49P  219P  0.00P  
07/21/2017 01:30 MST3.46P  211P  0.00P  
07/21/2017 01:45 MST3.45P  208P  0.00P  
07/21/2017 02:00 MST3.41P  198P  0.00P  
07/21/2017 02:15 MST3.38P  191P  0.00P  
07/21/2017 02:30 MST3.37P  189P  0.00P  
07/21/2017 02:45 MST3.35P  184P  0.00P  
07/21/2017 03:00 MST3.32P  177P  0.00P  
07/21/2017 03:15 MST3.29P  170P  0.00P  
07/21/2017 03:30 MST3.28P  168P  0.00P  
07/21/2017 03:45 MST3.25P  161P  0.00P  
07/21/2017 04:00 MST3.25P  161P  0.00P  
07/21/2017 04:15 MST3.22P  155P  0.00P  
07/21/2017 04:30 MST3.20P  151P  0.00P  
07/21/2017 04:45 MST3.19P  148P  0.00P  
07/21/2017 05:00 MST3.18P  146P  0.00P  
07/21/2017 05:15 MST3.15P  140P  0.00P  
07/21/2017 05:30 MST3.15P  140P  0.00P  
07/21/2017 05:45 MST3.27P  166P  0.00P  
07/21/2017 06:00 MST3.61P  252P  0.00P  
07/21/2017 06:15 MST4.00P  380P  0.00P  
07/21/2017 06:29 MST4.25P  486P     
07/21/2017 06:30 MST4.25P  486P  0.00P  
07/21/2017 06:44 MST4.41P  563P     
07/21/2017 06:45 MST4.41P  563P  0.00P  
07/21/2017 06:59 MST4.54P  630P     
07/21/2017 07:00 MST4.54P  630P  0.00P  
07/21/2017 07:14 MST4.64P  686P     
07/21/2017 07:15 MST4.64P  686P  0.00P  
07/21/2017 07:29 MST4.73P  738P     
07/21/2017 07:30 MST4.73P  738P  0.00P  
07/21/2017 07:44 MST4.79P  774P     
07/21/2017 07:45 MST4.79P  774P  0.00P  
07/21/2017 07:59 MST4.85P  812P     
07/21/2017 08:00 MST4.85P  812P  0.00P  
07/21/2017 08:14 MST4.86P  818P     
07/21/2017 08:15 MST4.86P  818P  0.00P  
07/21/2017 08:29 MST4.88P  831P     
07/21/2017 08:30 MST4.88P  831P  0.00P  
07/21/2017 08:44 MST4.95P  877P     
07/21/2017 08:45 MST4.95P  877P  0.00P  
07/21/2017 08:59 MST4.93P  864P     
07/21/2017 09:00 MST4.93P  864P  0.00P  
07/21/2017 09:14 MST4.91P  850P     
07/21/2017 09:15 MST4.91P  850P  0.00P  
07/21/2017 09:29 MST4.98P  897P     
07/21/2017 09:30 MST4.98P  897P  0.00P  
07/21/2017 09:44 MST5.01P  917P     
07/21/2017 09:45 MST5.01P  917P  0.00P  
07/21/2017 09:59 MST5.00P  910P     
07/21/2017 10:00 MST5.00P  910P  0.00P  
07/21/2017 10:14 MST5.01P  917P     
07/21/2017 10:15 MST5.01P  917P  0.00P  
07/21/2017 10:29 MST5.03P  931P     
07/21/2017 10:30 MST5.03P  931P  0.00P  
07/21/2017 10:44 MST5.04P  938P     
07/21/2017 10:45 MST5.04P  938P  0.00P  
07/21/2017 10:59 MST5.04P  938P     
07/21/2017 11:00 MST5.04P  938P  0.00P  
07/21/2017 11:14 MST5.09P  973P     
07/21/2017 11:15 MST5.09P  973P  0.00P  
07/21/2017 11:29 MST5.05P  945P     
07/21/2017 11:30 MST5.05P  945P  0.00P  
07/21/2017 11:44 MST5.10P  980P     
07/21/2017 11:45 MST5.10P  980P  0.00P  
07/21/2017 11:59 MST5.13P  1,000P     
07/21/2017 12:00 MST5.13P  1,000P  0.00P  
07/21/2017 12:14 MST5.10P  980P     
07/21/2017 12:15 MST5.10P  980P  0.00P  
07/21/2017 12:29 MST5.11P  988P     
07/21/2017 12:30 MST5.11P  988P  0.00P  
07/21/2017 12:44 MST5.09P  973P     
07/21/2017 12:45 MST5.09P  973P  0.00P  
07/21/2017 12:59 MST5.02P  924P     
07/21/2017 13:00 MST5.02P  924P  0.00P  
07/21/2017 13:14 MST4.89P  837P     
07/21/2017 13:15 MST4.89P  837P  0.00P  
07/21/2017 13:29 MST4.73P  738P     
07/21/2017 13:30 MST4.73P  738P  0.00P  
07/21/2017 13:44 MST4.59P  658P     
07/21/2017 13:45 MST4.59P  658P  0.00P  
07/21/2017 13:59 MST4.44P  578P     
07/21/2017 14:00 MST4.44P  578P  0.00P  
07/21/2017 14:14 MST4.31P  514P     
07/21/2017 14:15 MST4.31P  514P  0.00P  
07/21/2017 14:29 MST4.19P  459P     
07/21/2017 14:30 MST4.19P  459P  0.00P  
07/21/2017 14:45 MST4.08P  412P  0.00P  
07/21/2017 15:00 MST4.01P  384P  0.00P  
07/21/2017 15:15 MST3.94P  358P  0.00P  
07/21/2017 15:30 MST3.89P  341P  0.00P  
07/21/2017 15:45 MST3.82P  317P  0.00P  
07/21/2017 16:00 MST3.77P  300P  0.00P  
07/21/2017 16:15 MST3.73P  288P  0.00P  
07/21/2017 16:30 MST3.66P  266P  0.00P  
07/21/2017 16:45 MST3.62P  255P  0.00P  
07/21/2017 17:00 MST3.58P  243P  0.00P  
07/21/2017 17:15 MST3.54P  232P  0.00P  
07/21/2017 17:30 MST3.49P  219P  0.00P  
07/21/2017 17:45 MST3.45P  208P  0.00P  
07/21/2017 18:00 MST3.44P  206P  0.00P  
07/21/2017 18:15 MST3.40P  196P  0.00P  
07/21/2017 18:30 MST3.40P  196P  0.00P  
07/21/2017 18:45 MST3.36P  186P  0.00P  
07/21/2017 19:00 MST3.34P  181P  0.00P  
07/21/2017 19:15 MST3.37P  189P  0.00P  
07/21/2017 19:30 MST3.37P  189P  0.00P  
07/21/2017 19:45 MST3.35P  184P  0.00P  
07/21/2017 20:00 MST3.33P  179P  0.00P  
07/21/2017 20:15 MST3.33P  179P  0.00P  
07/21/2017 20:30 MST3.27P  166P  0.00P  
07/21/2017 20:45 MST3.27P  166P  0.00P  
07/21/2017 21:00 MST3.24P  159P  0.00P  
07/21/2017 21:15 MST3.21P  153P  0.00P  
07/21/2017 21:30 MST3.18P  146P  0.00P  
07/21/2017 21:45 MST3.16P  142P  0.00P  
07/21/2017 22:00 MST3.13P  136P  0.00P  
07/21/2017 22:15 MST3.11P  133P  0.00P  
07/21/2017 22:30 MST3.08P  127P  0.00P  
07/21/2017 22:45 MST3.06P  123P  0.00P  
07/21/2017 23:00 MST3.05P  121P  0.00P  
07/21/2017 23:15 MST3.04P  120P  0.00P  
07/21/2017 23:30 MST3.07P  125P  0.00P  
07/21/2017 23:45 MST3.10P  131P  0.00P  
07/22/2017 00:00 MST3.21P  153P  0.00P  
07/22/2017 00:15 MST3.27P  166P  0.00P  
07/22/2017 00:30 MST3.31P  174P  0.00P  
07/22/2017 00:45 MST3.35P  184P  0.00P  
07/22/2017 01:00 MST3.37P  189P  0.00P  
07/22/2017 01:15 MST3.38P  191P  0.00P  
07/22/2017 01:30 MST3.38P  191P  0.00P  
07/22/2017 01:45 MST3.43P  203P  0.00P  
07/22/2017 02:00 MST3.60P  249P  0.00P  
07/22/2017 02:15 MST3.93P  355P  0.00P  
07/22/2017 02:29 MST4.19P  459P     
07/22/2017 02:30 MST4.19P  459P  0.00P  
07/22/2017 02:44 MST4.39P  553P     
07/22/2017 02:45 MST4.39P  553P  0.00P  
07/22/2017 02:59 MST4.39P  553P     
07/22/2017 03:00 MST4.52P  620P  0.00P  
07/22/2017 03:14 MST4.67P  703P     
07/22/2017 03:15 MST4.67P  703P  0.00P  
07/22/2017 03:29 MST4.75P  750P     
07/22/2017 03:30 MST4.75P  750P  0.00P  
07/22/2017 03:44 MST4.80P  781P     
07/22/2017 03:45 MST4.80P  781P  0.00P  
07/22/2017 03:59 MST4.88P  831P     
07/22/2017 04:00 MST4.88P  831P  0.00P  
07/22/2017 04:14 MST4.89P  837P     
07/22/2017 04:15 MST4.89P  837P  0.00P  
07/22/2017 04:29 MST4.91P  850P     
07/22/2017 04:30 MST4.91P  850P  0.00P  
07/22/2017 04:44 MST4.98P  897P     
07/22/2017 04:45 MST4.98P  897P  0.00P  
07/22/2017 04:59 MST5.00P  910P     
07/22/2017 05:00 MST5.00P  910P  0.00P  
07/22/2017 05:14 MST5.02P  924P     
07/22/2017 05:15 MST5.02P  924P  0.00P  
07/22/2017 05:29 MST5.01P  917P     
07/22/2017 05:30 MST5.01P  917P  0.00P  
07/22/2017 05:44 MST5.05P  945P     
07/22/2017 05:45 MST5.05P  945P  0.00P  
07/22/2017 05:59 MST5.06P  952P     
07/22/2017 06:00 MST5.06P  952P  0.00P  
07/22/2017 06:14 MST5.10P  980P     
07/22/2017 06:15 MST5.10P  980P  0.00P  
07/22/2017 06:29 MST5.13P  1,000P     
07/22/2017 06:30 MST5.13P  1,000P  0.00P  
07/22/2017 06:44 MST5.18P  1,040P     
07/22/2017 06:45 MST5.18P  1,040P  0.00P  
07/22/2017 07:00 MST5.20P  1,050P  0.00P  
07/22/2017 07:14 MST5.20P  1,050P     
07/22/2017 07:15 MST5.20P  1,050P  0.00P  
07/22/2017 07:29 MST5.20P  1,050P     
07/22/2017 07:30 MST5.20P  1,050P  0.00P  
07/22/2017 07:44 MST5.26P  1,100P     
07/22/2017 07:45 MST5.26P  1,100P  0.00P  
07/22/2017 07:59 MST5.22P  1,070P     
07/22/2017 08:00 MST5.22P  1,070P  0.00P  
07/22/2017 08:14 MST5.18P  1,040P     
07/22/2017 08:15 MST5.18P  1,040P  0.00P  
07/22/2017 08:29 MST5.15P  1,020P     
07/22/2017 08:30 MST5.15P  1,020P  0.00P  
07/22/2017 08:44 MST5.06P  952P     
07/22/2017 08:45 MST5.06P  952P  0.00P  
07/22/2017 08:59 MST4.91P  850P     
07/22/2017 09:00 MST4.91P  850P  0.00P  
07/22/2017 09:14 MST4.75P  750P     
07/22/2017 09:15 MST4.75P  750P  0.00P  
07/22/2017 09:29 MST4.58P  652P     
07/22/2017 09:30 MST4.58P  652P  0.00P  
07/22/2017 09:44 MST4.41P  563P     
07/22/2017 09:45 MST4.41P  563P  0.00P  
07/22/2017 09:59 MST4.29P  505P     
07/22/2017 10:00 MST4.29P  505P  0.00P  
07/22/2017 10:14 MST4.16P  446P     
07/22/2017 10:15 MST4.16P  446P  0.00P  
07/22/2017 10:30 MST4.09P  417P  0.00P  
07/22/2017 10:45 MST3.98P  373P  0.00P  
07/22/2017 11:00 MST3.90P  344P  0.00P  
07/22/2017 11:15 MST3.84P  323P  0.00P  
07/22/2017 11:30 MST3.77P  300P  0.00P  
07/22/2017 11:45 MST3.71P  281P  0.00P  
07/22/2017 12:00 MST3.65P  263P  0.00P  
07/22/2017 12:15 MST3.59P  246P  0.00P  
07/22/2017 12:30 MST3.57P  240P  0.00P  
07/22/2017 12:45 MST3.52P  227P  0.00P  
07/22/2017 13:00 MST3.48P  216P  0.00P  
07/22/2017 13:15 MST3.43P  203P  0.00P  
07/22/2017 13:30 MST3.41P  198P  0.00P  
07/22/2017 13:45 MST3.36P  186P  0.00P  
07/22/2017 14:00 MST3.34P  181P  0.00P  
07/22/2017 14:15 MST3.31P  174P  0.00P  
07/22/2017 14:30 MST3.30P  172P  0.00P  
07/22/2017 14:45 MST3.32P  177P  0.00P  
07/22/2017 15:00 MST3.35P  184P  0.00P  
07/22/2017 15:15 MST3.38P  191P  0.00P  
07/22/2017 15:30 MST3.38P  191P  0.00P  
07/22/2017 15:45 MST3.34P  181P  0.00P  
07/22/2017 16:00 MST3.30P  172P  0.00P  
07/22/2017 16:15 MST3.25P  161P  0.00P  
07/22/2017 16:30 MST3.25P  161P  0.00P  
07/22/2017 16:45 MST3.28P  168P  0.00P  
07/22/2017 17:00 MST3.30P  172P  0.00P  
07/22/2017 17:15 MST3.27P  166P  0.00P  
07/22/2017 17:30 MST3.24P  159P  0.00P  
07/22/2017 17:45 MST3.13P  136P  0.00P  
07/22/2017 18:00 MST3.15P  140P  0.00P  
07/22/2017 18:15 MST3.13P  136P  0.00P  
07/22/2017 18:30 MST3.16P  142P  0.00P  
07/22/2017 18:45 MST3.26P  163P  0.00P  
07/22/2017 19:00 MST3.37P  189P  0.00P  
07/22/2017 19:15 MST3.48P  216P  0.00P  
07/22/2017 19:30 MST3.53P  229P  0.00P  
07/22/2017 19:45 MST3.58P  243P  0.00P  
07/22/2017 20:00 MST3.57P  240P  0.00P  
07/22/2017 20:15 MST3.57P  240P  0.00P  
07/22/2017 20:30 MST3.55P  235P  0.00P  
07/22/2017 20:45 MST3.49P  219P  0.00P  
07/22/2017 21:00 MST3.47P  213P  0.00P  
07/22/2017 21:15 MST3.45P  208P  0.00P  
07/22/2017 21:30 MST3.42P  201P  0.00P  
07/22/2017 21:45 MST3.40P  196P  0.00P  
07/22/2017 22:00 MST3.37P  189P  0.00P  
07/22/2017 22:15 MST3.38P  191P  0.00P  
07/22/2017 22:30 MST3.40P  196P  0.00P  
07/22/2017 22:45 MST3.44P  206P  0.00P  
07/22/2017 23:00 MST3.48P  216P  0.00P  
07/22/2017 23:15 MST3.49P  219P  0.00P  
07/22/2017 23:30 MST3.50P  221P  0.00P  
07/22/2017 23:45 MST3.51P  224P  0.00P  
07/23/2017 00:00 MST3.56P  238P  0.00P  
07/23/2017 00:15 MST3.66P  266P  0.00P  
07/23/2017 00:30 MST3.82P  317P  0.00P  
07/23/2017 00:45 MST3.99P  377P  0.00P  
07/23/2017 00:59 MST4.15P  442P     
07/23/2017 01:00 MST4.15P  442P  0.00P  
07/23/2017 01:14 MST4.34P  528P     
07/23/2017 01:15 MST4.34P  528P  0.00P  
07/23/2017 01:29 MST4.43P  573P     
07/23/2017 01:30 MST4.43P  573P  0.00P  
07/23/2017 01:44 MST4.50P  609P     
07/23/2017 01:45 MST4.50P  609P  0.00P  
07/23/2017 01:59 MST4.61P  669P     
07/23/2017 02:00 MST4.61P  669P  0.00P  
07/23/2017 02:14 MST4.70P  720P     
07/23/2017 02:15 MST4.70P  720P  0.00P  
07/23/2017 02:29 MST4.75P  750P     
07/23/2017 02:30 MST4.75P  750P  0.00P  
07/23/2017 02:44 MST4.76P  756P     
07/23/2017 02:45 MST4.76P  756P  0.00P  
07/23/2017 02:59 MST4.85P  812P     
07/23/2017 03:00 MST4.85P  812P  0.00P  
07/23/2017 03:14 MST4.87P  825P     
07/23/2017 03:15 MST4.87P  825P  0.00P  
07/23/2017 03:29 MST4.88P  831P     
07/23/2017 03:30 MST4.88P  831P  0.00P  
07/23/2017 03:44 MST4.94P  870P     
07/23/2017 03:45 MST4.94P  870P  0.00P  
07/23/2017 03:59 MST4.95P  877P     
07/23/2017 04:00 MST4.95P  877P  0.00P  
07/23/2017 04:14 MST4.99P  904P     
07/23/2017 04:15 MST4.99P  904P  0.00P  
07/23/2017 04:29 MST5.05P  945P     
07/23/2017 04:30 MST5.05P  945P  0.00P  
07/23/2017 04:44 MST5.08P  966P     
07/23/2017 04:45 MST5.08P  966P  0.00P  
07/23/2017 04:59 MST5.07P  959P     
07/23/2017 05:00 MST5.07P  959P  0.00P  
07/23/2017 05:14 MST5.11P  988P     
07/23/2017 05:15 MST5.11P  988P  0.00P  
07/23/2017 05:29 MST5.16P  1,020P     
07/23/2017 05:30 MST5.16P  1,020P  0.00P  
07/23/2017 05:44 MST5.17P  1,030P     
07/23/2017 05:45 MST5.17P  1,030P  0.00P  
07/23/2017 05:59 MST5.17P  1,030P     
07/23/2017 06:00 MST5.17P  1,030P  0.00P  
07/23/2017 06:14 MST5.22P  1,070P     
07/23/2017 06:15 MST5.22P  1,070P  0.00P  
07/23/2017 06:29 MST5.23P  1,080P     
07/23/2017 06:30 MST5.23P  1,080P  0.00P  
07/23/2017 06:44 MST5.25P  1,090P     
07/23/2017 06:45 MST5.25P  1,090P  0.00P  
07/23/2017 06:59 MST5.28P  1,110P     
07/23/2017 07:00 MST5.28P  1,110P  0.00P  
07/23/2017 07:14 MST5.30P  1,130P     
07/23/2017 07:15 MST5.30P  1,130P  0.00P  
07/23/2017 07:29 MST5.30P  1,130P     
07/23/2017 07:30 MST5.30P  1,130P  0.00P  
07/23/2017 07:44 MST5.29P  1,120P     
07/23/2017 07:45 MST5.29P  1,120P  0.00P  
07/23/2017 07:59 MST5.34P  1,160P     
07/23/2017 08:00 MST5.34P  1,160P  0.00P  
07/23/2017 08:14 MST5.32P  1,150P     
07/23/2017 08:15 MST5.32P  1,150P  0.00P  
07/23/2017 08:29 MST5.36P  1,180P     
07/23/2017 08:30 MST5.36P  1,180P  0.00P  
07/23/2017 08:44 MST5.29P  1,120P     
07/23/2017 08:45 MST5.29P  1,120P  0.00P  
07/23/2017 08:59 MST5.40P  1,210P     
07/23/2017 09:00 MST5.40P  1,210P  0.00P  
07/23/2017 09:14 MST5.33P  1,150P     
07/23/2017 09:15 MST5.33P  1,150P  0.00P  
07/23/2017 09:29 MST5.32P  1,150P     
07/23/2017 09:30 MST5.32P  1,150P  0.00P  
07/23/2017 09:44 MST5.32P  1,150P     
07/23/2017 09:45 MST5.32P  1,150P  0.00P  
07/23/2017 09:59 MST5.23P  1,080P     
07/23/2017 10:00 MST5.23P  1,080P  0.00P  
07/23/2017 10:14 MST5.19P  1,050P     
07/23/2017 10:15 MST5.19P  1,050P  0.00P  
07/23/2017 10:29 MST5.02P  924P     
07/23/2017 10:30 MST5.02P  924P  0.00P  
07/23/2017 10:44 MST4.91P  850P     
07/23/2017 10:45 MST4.91P  850P  0.00P  
07/23/2017 10:59 MST4.74P  744P     
07/23/2017 11:00 MST4.74P  744P  0.00P  
07/23/2017 11:14 MST4.62P  674P     
07/23/2017 11:15 MST4.62P  674P  0.00P  
07/23/2017 11:29 MST4.49P  604P     
07/23/2017 11:30 MST4.49P  604P  0.00P  
07/23/2017 11:45 MST4.40P  558P  0.00P  
07/23/2017 11:59 MST4.29P  505P     
07/23/2017 12:00 MST4.29P  505P  0.00P  
07/23/2017 12:14 MST4.23P  477P     
07/23/2017 12:15 MST4.23P  477P  0.00P  
07/23/2017 12:30 MST4.14P  438P  0.00P  
07/23/2017 12:45 MST4.09P  417P  0.00P  
07/23/2017 13:00 MST4.04P  396P  0.00P  
07/23/2017 13:15 MST3.99P  377P  0.00P  
07/23/2017 13:30 MST3.93P  355P  0.00P  
07/23/2017 13:45 MST3.89P  341P  0.00P  
07/23/2017 14:00 MST3.86P  330P  0.00P  
07/23/2017 14:15 MST3.99P  377P  0.00P  
07/23/2017 14:30 MST4.15P  442P  0.00P  
07/23/2017 14:45 MST4.15P  442P  0.00P  
07/23/2017 15:00 MST4.08P  412P  0.00P  
07/23/2017 15:15 MST3.99P  377P  0.00P  
07/23/2017 15:30 MST3.90P  344P  0.00P  
07/23/2017 15:45 MST3.81P  313P  0.00P  
07/23/2017 16:00 MST3.76P  297P  0.00P  
07/23/2017 16:15 MST3.72P  285P  0.00P  
07/23/2017 16:30 MST3.67P  269P  0.00P  
07/23/2017 16:45 MST3.61P  252P  0.00P  
07/23/2017 17:00 MST3.58P  243P  0.00P  
07/23/2017 17:15 MST3.54P  232P  0.00P  
07/23/2017 17:30 MST3.52P  227P  0.00P  
07/23/2017 17:45 MST3.57P  240P  0.00P  
07/23/2017 18:00 MST3.69P  275P  0.00P  
07/23/2017 18:15 MST3.72P  285P  0.00P  
07/23/2017 18:30 MST3.75P  294P  0.00P  
07/23/2017 18:44 MST4.23P  477P     
07/23/2017 18:45 MST4.23P  477P  0.00P  
07/23/2017 18:59 MST4.83P  799P     
07/23/2017 19:00 MST4.83P  799P  0.00P  
07/23/2017 19:14 MST5.08P  966P     
07/23/2017 19:15 MST5.08P  966P  0.00P  
07/23/2017 19:29 MST5.19P  1,050P     
07/23/2017 19:30 MST5.19P  1,050P  0.00P  
07/23/2017 19:44 MST5.21P  1,060P     
07/23/2017 19:45 MST5.21P  1,060P  0.00P  
07/23/2017 19:59 MST5.07P  959P     
07/23/2017 20:00 MST5.07P  959P  0.00P  
07/23/2017 20:14 MST4.81P  787P     
07/23/2017 20:15 MST4.81P  787P  0.00P  
07/23/2017 20:29 MST4.53P  625P     
07/23/2017 20:30 MST4.53P  625P  0.00P  
07/23/2017 20:44 MST4.34P  528P     
07/23/2017 20:45 MST4.34P  528P  0.00P  
07/23/2017 21:00 MST4.12P  429P  0.00P  
07/23/2017 21:15 MST3.95P  362P  0.00P  
07/23/2017 21:30 MST3.79P  307P  0.00P  
07/23/2017 21:45 MST3.66P  266P  0.00P  
07/23/2017 22:00 MST3.58P  243P  0.00P  
07/23/2017 22:15 MST3.46P  211P  0.00P  
07/23/2017 22:30 MST3.40P  196P  0.00P  
07/23/2017 22:45 MST3.34P  181P  0.00P  
07/23/2017 23:00 MST3.30P  172P  0.00P  
07/23/2017 23:15 MST3.25P  161P  0.00P  
07/23/2017 23:30 MST3.21P  153P  0.00P  
07/23/2017 23:45 MST3.19P  148P  0.00P  
07/24/2017 00:00 MST3.15P  140P  0.00P  
07/24/2017 00:15 MST3.14P  138P  0.00P  
07/24/2017 00:30 MST3.11P  133P  0.00P  
07/24/2017 00:45 MST3.08P  127P  0.00P  
07/24/2017 01:00 MST3.06P  123P  0.00P  
07/24/2017 01:15 MST3.05P  121P  0.00P  
07/24/2017 01:30 MST3.03P  118P  0.00P  
07/24/2017 01:45 MST3.01P  114P  0.00P  
07/24/2017 02:00 MST3.00P  113P  0.00P  
07/24/2017 02:15 MST2.97P  108P  0.00P  
07/24/2017 02:30 MST2.96P  106P  0.00P  
07/24/2017 02:45 MST2.95P  104P  0.00P  
07/24/2017 03:00 MST2.93P  101P  0.00P  
07/24/2017 03:15 MST2.92P  99.4P  0.00P  
07/24/2017 03:30 MST2.91P  97.8P  0.00P  
07/24/2017 03:45 MST2.90P  96.3P  0.00P  
07/24/2017 04:00 MST2.90P  96.3P  0.00P  
07/24/2017 04:15 MST2.89P  94.7P  0.00P  
07/24/2017 04:30 MST2.89P  94.7P  0.00P  
07/24/2017 04:45 MST2.87P  91.7P  0.00P  
07/24/2017 05:00 MST2.89P  94.7P  0.00P  
07/24/2017 05:15 MST3.38P  191P  0.00P  
07/24/2017 05:30 MST3.99P  377P  0.00P  
07/24/2017 05:44 MST4.26P  491P     
07/24/2017 05:45 MST4.26P  491P  0.00P  
07/24/2017 05:59 MST4.43P  573P     
07/24/2017 06:00 MST4.43P  573P  0.00P  
07/24/2017 06:14 MST4.58P  652P     
07/24/2017 06:15 MST4.58P  652P  0.00P  
07/24/2017 06:29 MST4.64P  686P     
07/24/2017 06:30 MST4.64P  686P  0.00P  
07/24/2017 06:44 MST4.73P  738P     
07/24/2017 06:45 MST4.73P  738P  0.00P  
07/24/2017 06:59 MST4.77P  762P     
07/24/2017 07:00 MST4.77P  762P  0.00P  
07/24/2017 07:14 MST4.81P  787P     
07/24/2017 07:15 MST4.81P  787P  0.00P  
07/24/2017 07:29 MST4.83P  799P     
07/24/2017 07:30 MST4.83P  799P  0.00P  
07/24/2017 07:44 MST4.87P  825P     
07/24/2017 07:45 MST4.87P  825P  0.00P  
07/24/2017 07:59 MST4.90P  844P     
07/24/2017 08:00 MST4.90P  844P  0.00P  
07/24/2017 08:14 MST4.94P  870P     
07/24/2017 08:15 MST4.94P  870P  0.00P  
07/24/2017 08:29 MST4.87P  825P     
07/24/2017 08:30 MST4.87P  825P  0.00P  
07/24/2017 08:44 MST4.90P  844P     
07/24/2017 08:45 MST4.90P  844P  0.00P  
07/24/2017 08:59 MST4.88P  831P     
07/24/2017 09:00 MST4.88P  831P  0.00P  
07/24/2017 09:14 MST4.89P  837P     
07/24/2017 09:15 MST4.89P  837P  0.00P  
07/24/2017 09:29 MST4.87P  825P     
07/24/2017 09:30 MST4.87P  825P  0.00P  
07/24/2017 09:44 MST4.84P  806P     
07/24/2017 09:45 MST4.84P  806P  0.00P  
07/24/2017 09:59 MST4.81P  787P     
07/24/2017 10:00 MST4.81P  787P  0.00P  
07/24/2017 10:14 MST4.74P  744P     
07/24/2017 10:15 MST4.74P  744P  0.00P  
07/24/2017 10:29 MST4.67P  703P     
07/24/2017 10:30 MST4.67P  703P  0.00P  
07/24/2017 10:44 MST4.61P  669P     
07/24/2017 10:45 MST4.61P  669P  0.00P  
07/24/2017 10:59 MST4.52P  620P     
07/24/2017 11:00 MST4.52P  620P  0.00P  
07/24/2017 11:14 MST4.43P  573P     
07/24/2017 11:15 MST4.43P  573P  0.00P  
07/24/2017 11:29 MST4.39P  553P     
07/24/2017 11:30 MST4.39P  553P  0.00P  
07/24/2017 11:44 MST4.28P  500P     
07/24/2017 11:45 MST4.28P  500P  0.00P  
07/24/2017 12:00 MST4.24P  482P  0.00P  
07/24/2017 12:15 MST4.16P  446P  0.00P  
07/24/2017 12:30 MST4.08P  412P  0.00P  
07/24/2017 12:45 MST4.05P  400P  0.00P  
07/24/2017 13:00 MST3.98P  373P  0.00P  
07/24/2017 13:15 MST3.96P  366P  0.00P  
07/24/2017 13:30 MST3.90P  344P  0.00P  
07/24/2017 13:45 MST3.85P  327P  0.00P  
07/24/2017 14:00 MST3.82P  317P  0.00P  
07/24/2017 14:15 MST3.78P  304P  0.00P  
07/24/2017 14:30 MST3.73P  288P  0.00P  
07/24/2017 14:45 MST3.71P  281P  0.00P  
07/24/2017 15:00 MST3.63P  257P  0.00P  
07/24/2017 15:15 MST3.61P  252P  0.00P  
07/24/2017 15:30 MST3.59P  246P  0.00P  
07/24/2017 15:45 MST3.56P  238P  0.00P  
07/24/2017 16:00 MST3.54P  232P  0.00P  
07/24/2017 16:15 MST3.50P  221P  0.00P  
07/24/2017 16:30 MST3.49P  219P  0.00P  
07/24/2017 16:45 MST3.46P  211P  0.00P  
07/24/2017 17:00 MST3.41P  198P  0.00P  
07/24/2017 17:15 MST3.41P  198P  0.00P  
07/24/2017 17:30 MST3.38P  191P  0.00P  
07/24/2017 17:45 MST3.37P  189P  0.00P  
07/24/2017 18:00 MST3.34P  181P  0.00P  
07/24/2017 18:15 MST3.32P  177P  0.00P  
07/24/2017 18:30 MST3.31P  174P  0.00P  
07/24/2017 18:45 MST3.27P  166P  0.00P  
07/24/2017 19:00 MST3.26P  163P  0.00P  
07/24/2017 19:15 MST3.24P  159P  0.00P  
07/24/2017 19:30 MST3.23P  157P  0.00P  
07/24/2017 19:45 MST3.20P  151P  0.00P  
07/24/2017 20:00 MST3.19P  148P  0.00P  

Explanation
  P  Provisional data subject to revision.